Etusivu
METAR-TAF:

METAR-TAF

Lentoasemat :

Sault Ste. Marie Municipal Airport (Sanderson Field)

Sault Ste. Marie, Michigan, Yhdysvallat

Leveyspiiri: 46-28-46N, Pituuspiiri: 084-21-26W, korkeus merenpinnasta: 210 m

Tämänhetkinen sää

Tämä raportti tehtiin 40 minuuttia sitten, kello 10.20 UTC
tyyntä
Lämpötila -11°C
Kosteus 85%
Ilmanpaine 1026 hPa
Näkyvyys: 2.8 km
Pilvistä 2300 ft:n korkeudessa
heikkoa lumisadetta, utua

METAR: KANJ 191020Z AUTO 00000KT 1 3/4SM -SN BR OVC023 M11/M13 A3029 RMK AO2 P0000 T11111133

Aika: 06:00 (11:00 UTC)


TAF: puuttuu

Säähavainnot ja -ennusteet yli 4000 lentoasemalta (METAR- ja TAF-raportit).

Käytössä olevat sääasemat on merkitty karttaan keltaisilla ja punaisilla pisteillä.

Aseta hiiri pisteen päälle nähdäksesi sääaseman nimen.

Klikkaa sitten nähdäksesi säähavainnot ja -ennusteet.

Kartan vaihtaminen: klikkaa mustalla rastilla varustettuja vihreitä pisteitä, niin voit zoomata sisään; viivalla varustettua vihreää pistettä, niin voit zoomata ulos tai vihreitä nuolia, niin pääset viereisille kartoille.


METAR-TAF: